createdAt,value
2023-01-08T00:04:18.432Z,2991.07196
2023-01-08T00:19:20.362Z,3018.0185
2023-01-08T00:34:22.302Z,3089.33766
2023-01-08T00:49:24.231Z,3047.18638
2023-01-08T01:04:26.282Z,3031.67469
2023-01-08T01:19:28.278Z,3057.616
2023-01-08T01:34:30.169Z,3076.92356
2023-01-08T01:49:32.075Z,3118.0924
2023-01-08T02:04:33.946Z,3078.69089
2023-01-08T02:19:35.889Z,2964.6023
2023-01-08T02:34:37.868Z,2815.12658
2023-01-08T02:49:40.013Z,2916.21381
2023-01-08T03:04:41.936Z,2774.32765
2023-01-08T03:19:43.873Z,2574.44816
2023-01-08T03:34:45.801Z,2549.95294
2023-01-08T03:49:47.737Z,2445.25599
2023-01-08T04:04:49.647Z,2423.14699
2023-01-08T04:19:51.732Z,2440.80197
2023-01-08T04:34:53.876Z,2371.68193
2023-01-08T04:49:55.783Z,2382.22273
2023-01-08T05:04:57.733Z,2431.94244
2023-01-08T05:19:59.650Z,2410.07245
2023-01-08T05:35:01.582Z,2472.32524
2023-01-08T05:50:03.544Z,2509.36381
2023-01-08T06:05:05.462Z,2392.85765
2023-01-08T06:20:07.512Z,2318.33961
2023-01-08T06:35:09.456Z,2571.97748
2023-01-08T06:50:11.394Z,2666.66719
2023-01-08T07:05:13.359Z,2677.3232
2023-01-08T07:20:15.306Z,2693.46786
2023-01-08T07:35:17.276Z,2720.81271
2023-01-08T07:50:19.231Z,2731.90674
2023-01-08T08:05:21.124Z,2777.2026
2023-01-08T08:20:23.059Z,2824.02582
2023-01-08T08:35:24.983Z,2791.66719
2023-01-08T08:50:26.876Z,2664.01642
2023-01-08T09:05:28.790Z,2516.43244
2023-01-08T09:20:30.714Z,2429.73759
2023-01-08T09:35:32.697Z,2656.09566
2023-01-08T09:50:34.636Z,2664.01642
2023-01-08T10:05:36.586Z,2609.54287
2023-01-08T10:20:38.509Z,2533.0818
2023-01-08T10:35:40.437Z,2410.07245
2023-01-08T10:50:42.359Z,1790.24766
2023-01-08T11:05:44.382Z,1539.3457
2023-01-08T11:20:46.370Z,1565.42105
2023-01-08T11:35:48.315Z,1631.163
2023-01-08T11:50:50.256Z,1725.6927
2023-01-08T12:05:52.177Z,1825.61358
2023-01-08T12:20:54.105Z,2371.68193
2023-01-08T12:35:56.027Z,2617.18802
2023-01-08T12:50:58.070Z,2731.90674
2023-01-08T13:05:59.940Z,2860.19263
2023-01-08T13:21:01.791Z,2909.88109
2023-01-08T13:36:03.833Z,2981.09063
2023-01-08T13:51:05.696Z,3045.45503
2023-01-08T14:06:07.560Z,3075.15826
2023-01-08T14:21:09.418Z,3127.18835
2023-01-08T14:36:11.306Z,3169.72254
2023-01-08T14:51:13.136Z,3200.00049
2023-01-08T15:06:15.101Z,3217.2874
2023-01-08T15:21:16.945Z,3244.55254
2023-01-08T15:36:18.798Z,3260.34112
2023-01-08T15:51:20.647Z,3286.32789
2023-01-08T16:06:22.730Z,3248.48533
2023-01-08T16:21:24.658Z,3256.37959
2023-01-08T16:36:26.509Z,3225.03057
2023-01-08T16:51:28.368Z,3211.50438
2023-01-08T17:06:30.244Z,3112.66018
2023-01-08T17:21:32.108Z,3021.421
2023-01-08T17:36:34.023Z,2916.21381
2023-01-08T17:51:36.098Z,2894.169
2023-01-08T18:06:37.962Z,2878.62566
2023-01-08T18:21:39.830Z,2782.97041
2023-01-08T18:36:41.724Z,2780.08351
2023-01-08T18:51:43.588Z,2729.12476
2023-01-08T19:06:45.662Z,2731.90674
2023-01-08T19:21:47.528Z,2734.6944
2023-01-08T19:36:49.371Z,2771.45864
2023-01-08T19:51:51.214Z,2818.08675
2023-01-08T20:06:53.052Z,2723.57776
2023-01-08T20:21:54.899Z,2516.43244
2023-01-08T20:36:56.742Z,2361.23399
2023-01-08T20:51:59.758Z,2280.85157
2023-01-08T21:07:02.276Z,2344.70742
2023-01-08T21:22:04.143Z,2322.35753
2023-01-08T21:37:06.014Z,2290.5988
2023-01-08T21:52:07.903Z,2412.24174
2023-01-08T22:07:09.744Z,2528.3024
2023-01-08T22:22:11.568Z,2617.18802
2023-01-08T22:37:13.500Z,2664.01642
2023-01-08T22:52:15.381Z,2748.71847
2023-01-08T23:07:17.256Z,2803.34781
2023-01-08T23:22:19.134Z,2841.99416
2023-01-08T23:37:20.946Z,2777.2026
2023-01-08T23:52:22.782Z,2740.28682
